createdAt,value
2022-12-29T00:00:08.669Z,11.16
2022-12-29T00:02:42.087Z,11.08
2022-12-29T00:05:09.205Z,11.14
2022-12-29T00:07:36.437Z,11.10
2022-12-29T00:10:03.218Z,11.14
2022-12-29T00:12:49.750Z,11.27
2022-12-29T00:15:36.878Z,11.33
2022-12-29T00:18:03.619Z,11.20
2022-12-29T00:20:48.550Z,11.33
2022-12-29T00:23:33.864Z,11.31
2022-12-29T00:26:23.101Z,11.23
2022-12-29T00:29:09.749Z,11.37
2022-12-29T00:31:55.026Z,11.34
2022-12-29T00:34:39.921Z,11.32
2022-12-29T00:37:06.522Z,11.28
2022-12-29T00:39:52.729Z,11.40
2022-12-29T00:42:38.112Z,11.43
2022-12-29T00:45:05.442Z,11.26
2022-12-29T00:47:32.061Z,11.21
2022-12-29T00:49:58.607Z,11.43
2022-12-29T00:52:25.205Z,11.22
2022-12-29T00:54:51.761Z,11.28
2022-12-29T00:57:19.524Z,11.41
2022-12-29T00:59:46.274Z,11.36
2022-12-29T01:02:13.009Z,11.27
2022-12-29T01:04:39.721Z,11.30
2022-12-29T01:07:06.501Z,11.25
2022-12-29T01:09:52.436Z,11.38
2022-12-29T01:12:39.164Z,11.50
2022-12-29T01:15:06.633Z,11.55
2022-12-29T01:17:33.904Z,11.44
2022-12-29T01:20:01.781Z,11.48
2022-12-29T01:22:28.453Z,11.48
2022-12-29T01:24:55.917Z,11.47
2022-12-29T01:27:22.537Z,11.49
2022-12-29T01:29:49.067Z,11.54
2022-12-29T01:32:15.692Z,11.48
2022-12-29T01:34:42.316Z,11.47
2022-12-29T01:37:08.901Z,11.50
2022-12-29T01:39:35.418Z,11.53
2022-12-29T01:42:01.963Z,11.65
2022-12-29T01:44:50.532Z,11.68
2022-12-29T01:47:35.550Z,11.73
2022-12-29T01:50:08.219Z,11.71
2022-12-29T01:52:38.917Z,11.60
2022-12-29T01:55:06.734Z,11.66
2022-12-29T01:57:38.125Z,11.83
2022-12-29T02:00:14.786Z,11.65
2022-12-29T02:02:52.595Z,11.56
2022-12-29T02:05:29.511Z,11.60
2022-12-29T02:07:56.312Z,11.48
2022-12-29T02:10:26.736Z,11.43
2022-12-29T02:12:55.201Z,11.51
2022-12-29T02:15:36.064Z,11.47
2022-12-29T02:18:19.636Z,11.42
2022-12-29T02:20:52.269Z,11.36
2022-12-29T02:23:38.121Z,11.39
2022-12-29T02:26:13.618Z,11.51
2022-12-29T02:29:06.977Z,11.37
2022-12-29T02:31:58.889Z,11.47
2022-12-29T02:34:56.811Z,11.47
2022-12-29T02:38:00.429Z,11.54
2022-12-29T02:40:42.168Z,11.58
2022-12-29T02:43:23.719Z,11.73
2022-12-29T02:46:35.481Z,11.67
2022-12-29T02:49:08.527Z,11.74
2022-12-29T02:51:54.092Z,11.83
2022-12-29T02:54:39.342Z,11.77
2022-12-29T02:57:28.526Z,11.82
2022-12-29T03:00:15.919Z,11.79
2022-12-29T03:03:07.270Z,11.85
2022-12-29T03:06:00.529Z,12.11
2022-12-29T03:09:00.335Z,12.00
2022-12-29T03:11:55.422Z,12.02
2022-12-29T03:14:51.771Z,11.92
2022-12-29T03:17:30.747Z,12.10
2022-12-29T03:20:05.427Z,12.11
2022-12-29T03:22:36.893Z,12.07
2022-12-29T03:25:25.232Z,12.12
2022-12-29T03:27:57.990Z,12.17
2022-12-29T03:30:29.169Z,12.20
2022-12-29T03:33:00.810Z,12.15
2022-12-29T03:35:34.070Z,12.06
2022-12-29T03:38:12.055Z,12.09
2022-12-29T03:40:42.979Z,12.22
2022-12-29T03:43:11.555Z,12.16
2022-12-29T03:45:38.331Z,12.19
2022-12-29T03:48:05.174Z,12.20
2022-12-29T03:50:32.638Z,12.14
2022-12-29T03:52:59.298Z,12.13
2022-12-29T03:55:27.850Z,12.17
2022-12-29T03:57:54.368Z,12.27
2022-12-29T04:00:31.447Z,12.16
2022-12-29T04:02:58.209Z,12.30
2022-12-29T04:05:25.201Z,12.23
2022-12-29T04:07:54.681Z,12.13
2022-12-29T04:10:21.289Z,12.26
2022-12-29T04:12:50.675Z,12.20
2022-12-29T04:15:17.472Z,12.30
2022-12-29T04:17:45.078Z,12.21
2022-12-29T04:20:31.963Z,12.29
2022-12-29T04:23:02.596Z,12.04
2022-12-29T04:25:29.640Z,12.19
2022-12-29T04:27:57.592Z,12.30
2022-12-29T04:30:44.826Z,12.11
2022-12-29T04:33:19.209Z,12.14
2022-12-29T04:35:46.889Z,12.16
2022-12-29T04:38:14.968Z,12.03
2022-12-29T04:40:43.937Z,11.95
2022-12-29T04:43:11.909Z,12.03
2022-12-29T04:45:58.839Z,12.12
2022-12-29T04:48:30.113Z,11.91
2022-12-29T04:51:11.495Z,12.00
2022-12-29T04:53:39.676Z,11.87
2022-12-29T04:56:06.603Z,11.86
2022-12-29T04:58:33.215Z,11.97
2022-12-29T05:01:00.506Z,11.91
2022-12-29T05:03:30.028Z,11.96
2022-12-29T05:05:57.946Z,11.84
2022-12-29T05:08:28.325Z,11.79
2022-12-29T05:10:57.651Z,11.92
2022-12-29T05:13:24.231Z,11.87
2022-12-29T05:15:54.548Z,11.92
2022-12-29T05:18:23.155Z,11.99
2022-12-29T05:20:50.631Z,12.00
2022-12-29T05:23:19.569Z,12.00
2022-12-29T05:25:51.918Z,12.09
2022-12-29T05:28:23.230Z,12.06
2022-12-29T05:30:54.383Z,12.05
2022-12-29T05:33:20.994Z,12.12
2022-12-29T05:35:49.835Z,12.10
2022-12-29T05:38:17.641Z,12.16
2022-12-29T05:40:45.861Z,12.11
2022-12-29T05:43:32.400Z,12.10
2022-12-29T05:46:21.812Z,12.14
2022-12-29T05:49:14.346Z,12.27
2022-12-29T05:52:04.034Z,12.23
2022-12-29T05:54:32.517Z,12.34
2022-12-29T05:56:59.172Z,12.19
2022-12-29T05:59:25.803Z,12.38
2022-12-29T06:01:54.287Z,12.32
2022-12-29T06:04:20.972Z,12.18
2022-12-29T06:06:48.045Z,11.55
2022-12-29T06:09:24.747Z,10.81
2022-12-29T06:11:54.477Z,10.74
2022-12-29T06:14:21.378Z,10.46
2022-12-29T06:16:48.363Z,10.33
2022-12-29T06:19:15.153Z,10.24
2022-12-29T06:21:42.140Z,10.27
2022-12-29T06:24:11.881Z,10.08
2022-12-29T06:26:38.848Z,10.19
2022-12-29T06:29:05.816Z,10.23
2022-12-29T06:31:33.042Z,10.08
2022-12-29T06:34:04.961Z,10.19
2022-12-29T06:36:34.755Z,10.46
2022-12-29T06:39:01.350Z,10.24
2022-12-29T06:41:32.235Z,10.15
2022-12-29T06:44:29.813Z,10.34
2022-12-29T06:47:05.711Z,10.38
2022-12-29T06:49:32.222Z,10.29
2022-12-29T06:52:00.698Z,10.23
2022-12-29T06:54:27.564Z,10.30
2022-12-29T06:56:54.304Z,10.36
2022-12-29T06:59:20.923Z,10.37
2022-12-29T07:01:47.508Z,10.20
2022-12-29T07:04:14.172Z,10.37
2022-12-29T07:06:41.669Z,10.18
2022-12-29T07:09:09.860Z,10.17
2022-12-29T07:11:37.135Z,10.38
2022-12-29T07:14:04.272Z,10.50
2022-12-29T07:16:31.215Z,10.59
2022-12-29T07:18:59.922Z,10.51
2022-12-29T07:21:26.753Z,10.56
2022-12-29T07:23:54.788Z,10.54
2022-12-29T07:26:21.512Z,10.73
2022-12-29T07:28:48.109Z,10.71
2022-12-29T07:31:17.487Z,10.79
2022-12-29T07:33:44.647Z,10.83
2022-12-29T07:36:12.391Z,10.83
2022-12-29T07:38:39.711Z,10.88
2022-12-29T07:41:06.478Z,10.95
2022-12-29T07:43:33.041Z,10.81
2022-12-29T07:46:56.410Z,10.80
2022-12-29T07:49:06.329Z,10.83
2022-12-29T07:51:33.361Z,10.84
2022-12-29T07:54:01.697Z,10.85
2022-12-29T07:56:28.476Z,11.02
2022-12-29T07:58:55.031Z,11.02
2022-12-29T08:01:24.477Z,10.93
2022-12-29T08:03:56.898Z,10.85
2022-12-29T08:06:24.072Z,10.88
2022-12-29T08:08:50.605Z,11.16
2022-12-29T08:11:17.267Z,10.92
2022-12-29T08:13:43.823Z,11.21
2022-12-29T08:16:10.453Z,11.18
2022-12-29T08:18:37.179Z,11.01
2022-12-29T08:21:05.175Z,11.05
2022-12-29T08:23:32.078Z,11.06
2022-12-29T08:26:04.121Z,11.33
2022-12-29T08:28:32.087Z,11.28
2022-12-29T08:31:00.101Z,11.19
2022-12-29T08:33:27.963Z,11.05
2022-12-29T08:36:03.985Z,11.32
2022-12-29T08:38:31.241Z,11.11
2022-12-29T08:40:59.316Z,11.16
2022-12-29T08:43:26.248Z,11.33
2022-12-29T08:45:53.356Z,11.24
2022-12-29T08:48:23.019Z,11.12
2022-12-29T08:50:50.905Z,11.12
2022-12-29T08:53:18.941Z,11.23
2022-12-29T08:55:59.336Z,11.14
2022-12-29T08:58:31.660Z,11.18
2022-12-29T09:00:58.768Z,11.18
2022-12-29T09:03:54.561Z,11.22
2022-12-29T09:06:12.521Z,11.48
2022-12-29T09:08:39.217Z,11.38
2022-12-29T09:11:16.318Z,11.42
2022-12-29T09:13:42.834Z,11.42
2022-12-29T09:16:09.480Z,11.38
2022-12-29T09:18:36.466Z,11.31
2022-12-29T09:21:05.714Z,11.38
2022-12-29T09:23:33.534Z,11.39
2022-12-29T09:26:00.579Z,11.59
2022-12-29T09:28:29.838Z,11.47
2022-12-29T09:30:56.713Z,11.56
2022-12-29T09:33:23.531Z,11.63
2022-12-29T09:35:58.272Z,11.42
2022-12-29T09:38:26.120Z,11.33
2022-12-29T09:41:14.252Z,11.50
2022-12-29T09:44:08.186Z,11.52
2022-12-29T09:46:42.359Z,11.63
2022-12-29T09:49:31.702Z,11.72
2022-12-29T09:52:04.892Z,11.54
2022-12-29T09:54:49.192Z,11.56
2022-12-29T09:57:30.899Z,11.51
2022-12-29T10:00:22.791Z,11.49
2022-12-29T10:03:18.700Z,11.55
2022-12-29T10:06:28.539Z,11.36
2022-12-29T10:09:17.556Z,11.56
2022-12-29T10:12:22.039Z,11.42
2022-12-29T10:15:03.144Z,11.93
2022-12-29T10:17:40.541Z,11.84
2022-12-29T10:20:20.358Z,11.91
2022-12-29T10:23:02.070Z,12.01
2022-12-29T10:25:34.679Z,11.93
2022-12-29T10:28:07.703Z,11.97
2022-12-29T10:30:36.059Z,11.77
2022-12-29T10:33:11.112Z,11.76
2022-12-29T10:35:41.436Z,11.91
2022-12-29T10:38:23.297Z,11.69
2022-12-29T10:41:16.463Z,11.81
2022-12-29T10:43:53.106Z,11.75
2022-12-29T10:46:27.184Z,11.56
2022-12-29T10:49:21.789Z,11.68
2022-12-29T10:51:53.947Z,11.70
2022-12-29T10:54:32.719Z,11.41
2022-12-29T10:57:43.452Z,11.65
2022-12-29T11:00:21.762Z,11.78
2022-12-29T11:03:03.552Z,11.72
2022-12-29T11:06:02.176Z,11.96
2022-12-29T11:08:37.048Z,11.77
2022-12-29T11:11:09.910Z,11.53
2022-12-29T11:13:49.058Z,11.51
2022-12-29T11:16:15.764Z,11.60
2022-12-29T11:18:47.761Z,11.82
2022-12-29T11:21:41.207Z,11.83
2022-12-29T11:24:21.861Z,11.93
2022-12-29T11:26:51.530Z,11.76
2022-12-29T11:29:22.695Z,11.70
2022-12-29T11:31:52.112Z,11.72
2022-12-29T11:34:20.487Z,11.68
2022-12-29T11:36:48.821Z,11.67
2022-12-29T11:40:05.761Z,11.81
2022-12-29T11:43:03.605Z,11.89
2022-12-29T11:45:34.601Z,11.86
2022-12-29T11:48:18.021Z,11.90
2022-12-29T11:50:53.421Z,12.00
2022-12-29T11:53:27.532Z,11.97
2022-12-29T11:55:57.617Z,11.99
2022-12-29T11:58:36.166Z,11.88
2022-12-29T12:01:26.311Z,11.76
2022-12-29T12:04:03.197Z,11.87
2022-12-29T12:06:31.984Z,12.08
2022-12-29T12:09:11.932Z,11.77
2022-12-29T12:11:44.276Z,11.97
2022-12-29T12:14:24.628Z,11.80
2022-12-29T12:17:24.511Z,11.91
2022-12-29T12:20:00.746Z,11.80
2022-12-29T12:22:42.430Z,11.77
2022-12-29T12:25:22.666Z,11.75
2022-12-29T12:27:59.635Z,11.82
2022-12-29T12:30:30.904Z,11.69
2022-12-29T12:33:17.378Z,11.87
2022-12-29T12:35:47.033Z,11.74
2022-12-29T12:38:32.293Z,11.63
2022-12-29T12:41:33.413Z,11.94
2022-12-29T12:44:28.921Z,11.74
2022-12-29T12:47:26.504Z,11.75
2022-12-29T12:50:02.233Z,11.70
2022-12-29T12:52:59.356Z,11.93
2022-12-29T12:55:36.585Z,11.68
2022-12-29T12:58:23.983Z,11.91
2022-12-29T13:01:17.275Z,11.79
2022-12-29T13:04:08.297Z,11.73
2022-12-29T13:07:22.741Z,11.76
2022-12-29T13:10:22.454Z,11.60
2022-12-29T13:13:04.667Z,11.92
2022-12-29T13:16:03.115Z,11.83
2022-12-29T13:19:02.884Z,11.55
2022-12-29T13:22:39.964Z,11.70
2022-12-29T13:26:13.344Z,11.81
2022-12-29T13:33:51.586Z,11.24
2022-12-29T13:36:52.614Z,11.24
2022-12-29T13:39:56.820Z,11.33
2022-12-29T13:48:51.766Z,11.44
2022-12-29T13:52:02.570Z,11.32
2022-12-29T13:54:59.404Z,11.36
2022-12-29T13:58:08.194Z,11.28
2022-12-29T14:01:22.725Z,11.22
2022-12-29T14:04:05.857Z,11.28
2022-12-29T14:06:46.707Z,11.18
2022-12-29T14:09:36.983Z,11.06
2022-12-29T14:12:24.565Z,11.40
2022-12-29T14:15:22.528Z,11.51
2022-12-29T14:18:44.108Z,11.17
2022-12-29T14:21:32.163Z,10.76
2022-12-29T14:24:37.218Z,10.95
2022-12-29T14:27:27.331Z,10.98
2022-12-29T14:30:40.576Z,10.78
2022-12-29T14:34:09.079Z,10.89
2022-12-29T14:37:06.581Z,10.97
2022-12-29T14:40:36.499Z,11.19
2022-12-29T14:43:37.051Z,11.09
2022-12-29T14:46:13.377Z,11.06
2022-12-29T14:49:03.287Z,11.18
2022-12-29T14:52:27.699Z,11.26
2022-12-29T14:55:48.862Z,11.41
2022-12-29T14:58:33.148Z,11.36
2022-12-29T15:01:21.965Z,11.05
2022-12-29T15:03:55.878Z,11.31
2022-12-29T15:07:01.528Z,11.41
2022-12-29T15:09:50.441Z,11.33
2022-12-29T15:12:49.636Z,11.28
2022-12-29T15:15:38.904Z,11.36
2022-12-29T15:18:37.952Z,11.35
2022-12-29T15:21:15.197Z,11.11
2022-12-29T15:23:59.854Z,11.27
2022-12-29T15:27:08.398Z,11.24
2022-12-29T15:29:54.403Z,11.29
2022-12-29T15:32:48.525Z,11.46
2022-12-29T15:35:51.598Z,11.32
2022-12-29T15:38:54.770Z,11.31
2022-12-29T15:42:10.996Z,11.02
2022-12-29T15:44:54.166Z,11.28
2022-12-29T15:47:38.701Z,11.20
2022-12-29T15:50:17.564Z,11.34
2022-12-29T15:52:58.080Z,11.07
2022-12-29T15:56:21.769Z,11.09
2022-12-29T15:58:52.358Z,11.17
2022-12-29T16:02:10.189Z,11.05
2022-12-29T16:05:29.302Z,10.82
2022-12-29T16:08:01.593Z,11.12
2022-12-29T16:10:46.643Z,10.92
2022-12-29T16:13:39.851Z,10.91
2022-12-29T16:22:52.719Z,11.07
2022-12-29T16:25:42.337Z,11.18
2022-12-29T16:28:29.244Z,11.01
2022-12-29T16:31:21.989Z,10.92
2022-12-29T16:34:15.782Z,10.94
2022-12-29T16:37:08.016Z,11.17
2022-12-29T16:40:06.730Z,10.96
2022-12-29T16:42:55.949Z,10.97
2022-12-29T16:46:04.715Z,10.96
2022-12-29T16:49:00.136Z,10.80
2022-12-29T16:52:00.320Z,10.75
2022-12-29T16:54:53.598Z,10.74
2022-12-29T16:57:41.830Z,10.90
2022-12-29T17:00:35.164Z,10.67
2022-12-29T17:03:07.891Z,10.23
2022-12-29T17:05:54.059Z,10.17
2022-12-29T17:08:27.885Z,9.83
2022-12-29T17:11:24.468Z,9.88
2022-12-29T17:15:12.141Z,9.92
2022-12-29T17:21:23.371Z,9.81
2022-12-29T17:23:57.012Z,9.91
2022-12-29T17:26:30.406Z,9.76
2022-12-29T17:29:04.029Z,9.97
2022-12-29T17:31:43.058Z,10.09
2022-12-29T17:34:20.309Z,9.92
2022-12-29T17:37:04.698Z,10.10
2022-12-29T17:40:00.548Z,10.36
2022-12-29T17:42:42.434Z,10.35
2022-12-29T17:45:38.193Z,10.20
2022-12-29T17:48:24.175Z,10.36
2022-12-29T17:51:10.525Z,10.06
2022-12-29T17:53:56.166Z,9.79
2022-12-29T17:56:33.190Z,9.90
2022-12-29T18:00:35.646Z,9.86
2022-12-29T18:03:45.717Z,9.93
2022-12-29T18:06:21.372Z,9.68
2022-12-29T18:09:09.409Z,9.44
2022-12-29T18:11:49.474Z,9.67
2022-12-29T18:14:26.206Z,9.76
2022-12-29T18:17:03.626Z,9.72
2022-12-29T18:19:43.170Z,9.50
2022-12-29T18:22:31.139Z,9.56
2022-12-29T18:25:23.937Z,9.50
2022-12-29T18:28:27.599Z,9.23
2022-12-29T18:32:19.042Z,8.95
2022-12-29T18:35:24.853Z,8.97
2022-12-29T18:38:26.891Z,9.26
2022-12-29T18:41:09.091Z,9.09
2022-12-29T18:44:04.542Z,9.29
2022-12-29T18:47:24.316Z,9.21
2022-12-29T18:53:59.814Z,9.13
2022-12-29T18:56:40.249Z,9.13
2022-12-29T18:59:17.905Z,9.13
2022-12-29T19:02:43.065Z,8.73
2022-12-29T19:06:04.733Z,8.70
2022-12-29T19:08:50.910Z,8.62
2022-12-29T19:14:25.606Z,8.88
2022-12-29T19:17:02.269Z,9.14
2022-12-29T19:19:39.332Z,8.77
2022-12-29T19:22:07.380Z,8.78
2022-12-29T19:24:41.466Z,8.84
2022-12-29T19:27:28.116Z,8.85
2022-12-29T19:30:13.117Z,8.89
2022-12-29T19:33:11.122Z,8.85
2022-12-29T19:36:17.460Z,8.84
2022-12-29T19:38:51.871Z,8.46
2022-12-29T19:41:35.111Z,8.65
2022-12-29T19:44:05.662Z,8.69
2022-12-29T19:46:49.106Z,8.52
2022-12-29T19:49:30.761Z,8.38
2022-12-29T19:52:19.185Z,8.68
2022-12-29T19:54:53.345Z,8.47
2022-12-29T19:57:32.420Z,8.61
2022-12-29T20:00:11.548Z,8.32
2022-12-29T20:02:57.816Z,8.19
2022-12-29T20:05:38.054Z,8.46
2022-12-29T20:08:35.675Z,8.49
2022-12-29T20:11:13.766Z,8.35
2022-12-29T20:13:49.244Z,8.25
2022-12-29T20:16:25.527Z,8.37
2022-12-29T20:18:58.359Z,8.46
2022-12-29T20:21:29.120Z,8.57
2022-12-29T20:24:08.126Z,8.41
2022-12-29T20:26:58.914Z,8.36
2022-12-29T20:29:40.371Z,8.31
2022-12-29T20:32:37.945Z,8.16
2022-12-29T20:35:27.675Z,8.22
2022-12-29T20:40:59.028Z,8.56
2022-12-29T20:43:43.725Z,8.14
2022-12-29T20:46:46.169Z,8.34
2022-12-29T20:49:35.700Z,8.20
2022-12-29T20:52:06.938Z,8.59
2022-12-29T20:54:38.751Z,8.57
2022-12-29T20:57:06.309Z,8.84
2022-12-29T20:59:32.853Z,8.51
2022-12-29T21:01:59.606Z,8.53
2022-12-29T21:04:26.430Z,8.38
2022-12-29T21:06:54.101Z,8.61
2022-12-29T21:09:20.607Z,8.54
2022-12-29T21:11:48.426Z,8.61
2022-12-29T21:14:15.174Z,8.82
2022-12-29T21:16:41.903Z,8.47
2022-12-29T21:19:08.574Z,8.49
2022-12-29T21:21:35.297Z,8.67
2022-12-29T21:24:05.926Z,8.72
2022-12-29T21:26:33.834Z,8.66
2022-12-29T21:29:01.219Z,8.80
2022-12-29T21:31:30.560Z,8.86
2022-12-29T21:33:58.096Z,8.89
2022-12-29T21:36:25.149Z,8.78
2022-12-29T21:38:52.039Z,8.71
2022-12-29T21:41:18.827Z,8.66
2022-12-29T21:44:04.945Z,8.66
2022-12-29T21:46:32.871Z,8.63
2022-12-29T21:48:59.775Z,8.58
2022-12-29T21:51:44.966Z,8.65
2022-12-29T21:54:30.391Z,8.78
2022-12-29T21:56:59.946Z,8.72
2022-12-29T21:59:44.919Z,8.74
2022-12-29T22:02:59.219Z,8.50
2022-12-29T22:05:44.271Z,8.80
2022-12-29T22:08:29.396Z,8.91
2022-12-29T22:11:14.495Z,8.54
2022-12-29T22:13:40.990Z,8.55
2022-12-29T22:16:10.723Z,9.03
2022-12-29T22:18:38.469Z,8.95
2022-12-29T22:21:07.267Z,8.78
2022-12-29T22:23:34.054Z,8.83
2022-12-29T22:26:05.416Z,8.83
2022-12-29T22:28:34.696Z,8.87
2022-12-29T22:31:01.411Z,8.73
2022-12-29T22:33:28.025Z,8.57
2022-12-29T22:35:54.748Z,8.67
2022-12-29T22:38:21.460Z,8.82
2022-12-29T22:40:48.178Z,8.53
2022-12-29T22:43:14.751Z,8.93
2022-12-29T22:45:41.553Z,8.64
2022-12-29T22:48:08.870Z,8.48
2022-12-29T22:50:35.412Z,8.69
2022-12-29T22:53:01.894Z,8.57
2022-12-29T22:55:28.406Z,8.67
2022-12-29T22:57:55.065Z,8.62
2022-12-29T23:00:21.751Z,8.78
2022-12-29T23:02:48.373Z,8.52
2022-12-29T23:05:15.192Z,8.57
2022-12-29T23:07:41.783Z,8.66
2022-12-29T23:10:08.584Z,8.49
2022-12-29T23:12:35.169Z,8.80
2022-12-29T23:15:01.719Z,8.54
2022-12-29T23:17:28.334Z,8.60
2022-12-29T23:19:54.906Z,8.38
2022-12-29T23:22:22.956Z,8.66
2022-12-29T23:24:49.539Z,8.64
2022-12-29T23:27:16.059Z,8.76
2022-12-29T23:29:42.593Z,8.65
2022-12-29T23:32:09.231Z,8.65
2022-12-29T23:34:36.936Z,8.92
2022-12-29T23:37:03.633Z,8.67
2022-12-29T23:39:30.589Z,8.62
2022-12-29T23:41:57.723Z,8.51
2022-12-29T23:44:24.301Z,8.47
2022-12-29T23:46:51.122Z,8.57
2022-12-29T23:49:17.869Z,8.42
2022-12-29T23:51:44.415Z,8.42
2022-12-29T23:54:11.009Z,8.38
2022-12-29T23:56:37.525Z,8.56
2022-12-29T23:59:05.164Z,8.28
